Time;durP1;ratioP1;P1;durP2;ratioP2;P2;SDS_P1;SDS_P2;PMS_P1;PMS_P2;Temp;Humidity;BMP_temperature;BMP_pressure;BME280_temperature;BME280_humidity;BME280_pressure;Samples;Min_cycle;Max_cycle;Signal;HPM_P1;HPM_P2
2021/06/19 00:01:42;;;;;;;9.70;8.80;;;24.00;73.90;;;;;;5055434;28;20049;-66
2021/06/19 00:04:09;;;;;;;9.82;9.02;;;23.90;74.30;;;;;;5055849;28;20501;-67
2021/06/19 00:06:37;;;;;;;10.10;9.10;;;23.90;74.60;;;;;;5055097;28;20049;-67
2021/06/19 00:09:04;;;;;;;11.80;9.43;;;23.80;74.80;;;;;;5055552;28;20045;-67
2021/06/19 00:11:31;;;;;;;9.32;8.52;;;23.80;75.20;;;;;;5055691;28;20098;-67
2021/06/19 00:13:57;;;;;;;10.20;9.27;;;23.80;75.10;;;;;;5055835;28;20394;-67
2021/06/19 00:16:24;;;;;;;10.88;9.95;;;23.70;75.60;;;;;;5054741;28;20102;-66
2021/06/19 00:18:50;;;;;;;10.40;9.40;;;23.70;76.00;;;;;;5055057;28;20071;-67
2021/06/19 00:21:17;;;;;;;10.82;9.82;;;23.70;76.10;;;;;;5054890;28;20500;-66
2021/06/19 00:23:45;;;;;;;9.88;8.88;;;23.70;76.20;;;;;;5055003;28;20053;-67
2021/06/19 00:26:12;;;;;;;10.35;9.35;;;23.60;76.80;;;;;;5054876;28;20049;-67
2021/06/19 00:28:38;;;;;;;10.90;9.98;;;23.50;76.90;;;;;;5054834;28;20455;-67
2021/06/19 00:31:05;;;;;;;9.43;8.57;;;23.50;77.00;;;;;;5054985;28;20094;-66
2021/06/19 00:33:32;;;;;;;10.43;9.52;;;23.50;77.30;;;;;;5055279;28;20098;-66
2021/06/19 00:35:58;;;;;;;10.43;9.55;;;23.50;77.60;;;;;;5054708;28;20044;-67
2021/06/19 00:38:25;;;;;;;10.07;9.18;;;23.50;77.80;;;;;;5054841;28;20048;-66
2021/06/19 00:40:53;;;;;;;10.95;9.55;;;23.40;78.00;;;;;;5054786;28;20049;-66
2021/06/19 00:43:20;;;;;;;9.35;8.65;;;23.40;79.00;;;;;;5055095;28;20049;-67
2021/06/19 00:45:46;;;;;;;10.00;8.93;;;23.30;78.80;;;;;;5054516;28;20049;-66
2021/06/19 00:48:13;;;;;;;11.55;9.88;;;23.30;79.20;;;;;;5054766;28;20048;-66
2021/06/19 00:50:42;;;;;;;10.60;9.38;;;23.30;79.40;;;;;;5054810;28;20114;-67
2021/06/19 00:53:09;;;;;;;12.50;9.40;;;23.30;79.70;;;;;;5054994;28;20405;-66
2021/06/19 00:55:36;;;;;;;11.00;9.90;;;23.20;80.10;;;;;;5054602;28;20492;-66
2021/06/19 00:58:05;;;;;;;10.15;9.27;;;23.20;80.50;;;;;;5041325;28;20476;-67
2021/06/19 01:00:32;;;;;;;10.25;9.23;;;23.30;80.70;;;;;;5054832;28;20413;-67
2021/06/19 01:03:00;;;;;;;10.32;9.32;;;23.20;80.80;;;;;;5055063;28;20049;-67
2021/06/19 01:05:28;;;;;;;9.52;8.70;;;23.20;81.50;;;;;;5053848;28;20107;-67
2021/06/19 01:07:56;;;;;;;10.45;9.18;;;23.10;82.10;;;;;;5053257;28;20045;-67
2021/06/19 01:10:24;;;;;;;10.35;9.45;;;23.20;82.20;;;;;;5054143;28;20443;-67
2021/06/19 01:12:51;;;;;;;9.73;8.82;;;23.20;82.40;;;;;;5054388;28;20045;-67
2021/06/19 01:15:18;;;;;;;10.25;9.35;;;23.20;82.80;;;;;;5054182;28;20045;-67
2021/06/19 01:17:46;;;;;;;10.57;9.57;;;23.20;83.20;;;;;;5052783;28;20111;-67
2021/06/19 01:20:15;;;;;;;10.40;9.40;;;23.10;83.70;;;;;;5053204;28;20052;-67
2021/06/19 01:22:45;;;;;;;10.50;9.50;;;23.10;84.10;;;;;;5053792;28;20075;-67
2021/06/19 01:25:18;;;;;;;9.65;8.75;;;23.00;84.30;;;;;;5053800;28;20117;-67
2021/06/19 01:27:47;;;;;;;10.45;9.27;;;23.00;84.90;;;;;;5053543;28;20160;-67
2021/06/19 01:30:15;;;;;;;10.18;9.27;;;23.00;84.90;;;;;;5053935;28;20077;-67
2021/06/19 01:32:42;;;;;;;10.77;9.73;;;22.90;85.70;;;;;;5054510;28;20044;-67
2021/06/19 01:35:10;;;;;;;10.63;9.70;;;22.90;86.30;;;;;;5053556;28;20045;-67
2021/06/19 01:37:38;;;;;;;10.10;9.30;;;22.90;86.90;;;;;;5052868;28;20158;-67
2021/06/19 01:40:07;;;;;;;10.07;9.27;;;22.90;87.60;;;;;;5053860;28;20048;-67
2021/06/19 01:42:39;;;;;;;10.05;9.25;;;22.80;88.20;;;;;;5053641;28;20102;-67
2021/06/19 01:45:11;;;;;;;11.93;10.57;;;22.90;88.70;;;;;;5053572;28;20095;-67
2021/06/19 01:47:37;;;;;;;10.40;9.50;;;22.90;88.60;;;;;;5053130;28;20075;-67
2021/06/19 01:50:06;;;;;;;11.02;10.13;;;22.70;89.50;;;;;;5053847;28;20505;-67
2021/06/19 01:52:32;;;;;;;10.18;9.27;;;22.70;90.30;;;;;;5053532;28;20049;-67
2021/06/19 01:54:59;;;;;;;11.07;10.02;;;22.70;90.60;;;;;;5053527;28;20045;-67
2021/06/19 01:57:26;;;;;;;10.30;9.30;;;22.60;90.70;;;;;;5053522;28;20542;-67
2021/06/19 02:00:01;;;;;;;13.45;10.18;;;22.60;91.30;;;;;;5053115;28;20111;-67
2021/06/19 02:02:28;;;;;;;11.52;10.50;;;22.50;91.80;;;;;;5053298;28;20045;-67
2021/06/19 02:04:54;;;;;;;11.27;10.25;;;22.50;92.00;;;;;;5053416;28;20045;-66
2021/06/19 02:07:21;;;;;;;12.13;10.95;;;22.50;92.60;;;;;;5053095;28;20053;-67
2021/06/19 02:09:47;;;;;;;11.55;10.10;;;22.40;93.10;;;;;;5053180;28;20048;-66
2021/06/19 02:12:14;;;;;;;10.88;9.98;;;22.40;93.50;;;;;;5053370;28;20053;-66
2021/06/19 02:14:41;;;;;;;10.82;9.88;;;22.30;94.20;;;;;;5053666;28;20068;-67
2021/06/19 02:17:08;;;;;;;11.52;10.25;;;22.30;94.50;;;;;;5053045;28;20095;-67
2021/06/19 02:19:35;;;;;;;10.20;9.20;;;22.30;95.00;;;;;;5053484;28;20049;-67
2021/06/19 02:22:02;;;;;;;10.93;9.98;;;22.30;95.40;;;;;;5053338;28;20554;-67
2021/06/19 02:24:28;;;;;;;10.52;9.55;;;22.20;96.20;;;;;;5053581;28;20052;-67
2021/06/19 02:27:07;;;;;;;11.73;10.40;;;22.10;96.90;;;;;;5053073;28;20488;-67
2021/06/19 02:29:34;;;;;;;12.10;11.00;;;22.00;97.60;;;;;;5053012;28;20545;-67
2021/06/19 02:32:01;;;;;;;10.73;9.77;;;22.00;98.00;;;;;;5052923;28;20159;-68
2021/06/19 02:34:29;;;;;;;11.10;10.20;;;22.00;98.30;;;;;;5053601;28;20390;-68
2021/06/19 02:36:56;;;;;;;10.60;9.57;;;22.00;98.90;;;;;;5052350;28;20103;-65
2021/06/19 02:39:22;;;;;;;10.68;9.65;;;22.00;99.10;;;;;;5052798;28;20045;-67
2021/06/19 02:41:49;;;;;;;10.88;9.98;;;22.00;99.60;;;;;;5052664;28;20118;-67
2021/06/19 02:44:15;;;;;;;11.77;9.70;;;22.00;99.70;;;;;;5052914;28;20041;-67
2021/06/19 02:46:42;;;;;;;10.13;9.13;;;22.00;99.90;;;;;;5052421;28;20041;-67
2021/06/19 02:49:09;;;;;;;11.38;9.90;;;21.90;99.90;;;;;;5053038;28;20044;-67
2021/06/19 02:51:37;;;;;;;11.38;10.15;;;21.80;99.90;;;;;;5052938;28;20095;-66
2021/06/19 02:54:03;;;;;;;10.38;9.48;;;21.80;99.90;;;;;;5053467;28;20052;-66
2021/06/19 02:56:30;;;;;;;11.13;10.02;;;21.80;99.90;;;;;;5052159;28;20099;-66
2021/06/19 02:58:57;;;;;;;10.88;9.80;;;21.70;99.90;;;;;;5052512;28;20036;-67
2021/06/19 03:01:23;;;;;;;10.85;9.93;;;21.80;99.90;;;;;;5052358;28;20049;-67
2021/06/19 03:03:50;;;;;;;11.07;10.18;;;21.90;99.90;;;;;;5052585;28;20102;-67
2021/06/19 03:06:17;;;;;;;11.75;10.57;;;21.90;99.90;;;;;;5052303;28;20041;-67
2021/06/19 03:08:45;;;;;;;12.32;11.13;;;21.80;99.90;;;;;;5052540;28;20468;-67
2021/06/19 03:11:11;;;;;;;11.07;10.18;;;21.80;99.90;;;;;;5052391;28;20099;-67
2021/06/19 03:13:38;;;;;;;11.18;9.32;;;21.70;99.90;;;;;;5052613;28;20478;-67
2021/06/19 03:16:05;;;;;;;12.05;10.95;;;21.50;99.90;;;;;;5052220;28;20045;-66
2021/06/19 03:18:32;;;;;;;12.50;10.98;;;21.40;99.90;;;;;;5052019;28;20041;-66
2021/06/19 03:20:58;;;;;;;11.93;10.70;;;21.50;99.90;;;;;;5052836;28;20053;-67
2021/06/19 03:23:25;;;;;;;11.77;10.60;;;21.50;99.90;;;;;;5053070;28;20115;-66
2021/06/19 03:25:53;;;;;;;11.70;10.70;;;21.40;99.90;;;;;;5052748;28;20049;-66
2021/06/19 03:28:20;;;;;;;11.65;10.48;;;21.40;99.90;;;;;;5052509;28;20053;-66
2021/06/19 03:30:47;;;;;;;12.30;10.35;;;21.40;99.90;;;;;;5054368;28;20110;-67
2021/06/19 03:33:14;;;;;;;11.77;10.77;;;21.40;99.90;;;;;;5056052;28;20067;-67
2021/06/19 03:35:41;;;;;;;11.82;10.82;;;21.40;99.90;;;;;;5055742;28;20084;-68
2021/06/19 03:38:08;;;;;;;12.57;11.43;;;21.50;99.90;;;;;;5055808;28;20477;-66
2021/06/19 03:40:36;;;;;;;11.07;10.13;;;21.60;99.90;;;;;;5055519;28;20048;-66
2021/06/19 03:43:05;;;;;;;11.27;10.10;;;21.60;99.90;;;;;;5056023;28;20567;-66
2021/06/19 03:45:35;;;;;;;12.07;10.90;;;21.60;99.90;;;;;;5055330;28;20053;-66
2021/06/19 03:48:02;;;;;;;13.55;11.57;;;21.70;99.90;;;;;;5056041;28;20074;-66
2021/06/19 03:50:30;;;;;;;11.90;10.80;;;21.80;99.90;;;;;;5056001;28;20045;-67
2021/06/19 03:52:57;;;;;;;10.57;9.48;;;21.70;99.90;;;;;;5055850;28;20098;-67
2021/06/19 03:55:24;;;;;;;11.77;10.77;;;21.80;99.90;;;;;;5055854;28;20045;-66
2021/06/19 03:57:53;;;;;;;12.18;10.98;;;22.00;99.90;;;;;;5052310;28;20064;-67
2021/06/19 04:00:22;;;;;;;12.15;10.95;;;22.10;99.90;;;;;;5055182;28;20045;-67
2021/06/19 04:02:49;;;;;;;13.13;11.35;;;22.20;99.90;;;;;;5055496;28;20052;-67
2021/06/19 04:05:17;;;;;;;12.57;11.27;;;22.20;99.90;;;;;;5055526;28;20049;-67
2021/06/19 04:07:44;;;;;;;11.98;10.75;;;22.20;99.90;;;;;;5054992;28;20481;-67
2021/06/19 04:10:12;;;;;;;11.57;10.48;;;22.30;99.90;;;;;;5055521;28;20424;-67
2021/06/19 04:12:39;;;;;;;12.00;10.90;;;22.40;99.90;;;;;;5055522;28;20098;-67
2021/06/19 04:15:08;;;;;;;13.15;10.82;;;22.50;99.90;;;;;;5055593;28;20048;-66
2021/06/19 04:17:36;;;;;;;19.95;10.82;;;22.60;99.90;;;;;;5054918;28;20045;-67
2021/06/19 04:20:05;;;;;;;12.10;11.07;;;22.60;99.90;;;;;;5054868;28;20496;-67
2021/06/19 04:22:31;;;;;;;11.77;10.45;;;22.60;99.90;;;;;;5055203;28;20095;-67
2021/06/19 04:24:58;;;;;;;12.00;10.90;;;22.80;99.90;;;;;;5056033;28;20049;-66
2021/06/19 04:27:24;;;;;;;11.00;10.07;;;22.80;99.90;;;;;;5056522;28;20099;-66
2021/06/19 04:29:51;;;;;;;11.25;10.25;;;22.80;99.90;;;;;;5055659;28;20045;-68
2021/06/19 04:32:19;;;;;;;13.73;12.38;;;22.90;99.90;;;;;;5019411;28;20060;-68
2021/06/19 04:34:47;;;;;;;12.07;10.90;;;22.90;99.90;;;;;;5060126;28;20131;-65
2021/06/19 04:37:15;;;;;;;11.68;10.57;;;23.00;99.90;;;;;;5056136;28;20114;-66
2021/06/19 04:39:49;;;;;;;13.40;12.20;;;23.10;99.90;;;;;;5056222;28;20396;-65
2021/06/19 04:42:16;;;;;;;12.25;10.95;;;23.20;99.90;;;;;;5056337;28;20052;-66
2021/06/19 04:47:25;;;;;;;11.77;10.57;;;23.40;99.90;;;;;;5053075;28;20041;-65
2021/06/19 04:49:53;;;;;;;11.45;10.30;;;23.40;99.90;;;;;;5055267;28;20095;-68
2021/06/19 04:52:20;;;;;;;13.82;11.57;;;23.50;99.90;;;;;;5055318;28;20095;-66
2021/06/19 04:54:46;;;;;;;13.55;12.25;;;23.50;99.90;;;;;;5057121;28;20049;-65
2021/06/19 04:57:13;;;;;;;14.63;12.23;;;23.50;99.90;;;;;;5056740;28;20072;-65
2021/06/19 04:59:40;;;;;;;12.02;10.98;;;23.50;99.90;;;;;;5055814;28;20045;-65
2021/06/19 05:02:06;;;;;;;12.63;11.43;;;23.50;99.90;;;;;;5055204;28;20045;-67
2021/06/19 05:04:33;;;;;;;13.07;11.40;;;23.60;99.90;;;;;;5055967;28;20044;-67
2021/06/19 05:07:01;;;;;;;12.25;11.02;;;23.60;99.90;;;;;;5056042;28;20053;-67
2021/06/19 05:09:27;;;;;;;12.55;11.25;;;23.70;99.90;;;;;;5055694;28;20451;-66
2021/06/19 05:11:54;;;;;;;12.02;10.88;;;23.70;99.50;;;;;;5055923;28;20087;-66
2021/06/19 05:14:21;;;;;;;12.70;11.38;;;23.70;99.90;;;;;;5055200;28;20075;-66
2021/06/19 05:16:47;;;;;;;11.85;10.80;;;23.80;99.90;;;;;;5054798;28;20111;-69
2021/06/19 05:19:17;;;;;;;12.73;11.70;;;23.80;99.30;;;;;;5054143;28;20819;-70
2021/06/19 05:21:43;;;;;;;13.52;12.40;;;23.90;99.20;;;;;;5053975;28;20045;-70
2021/06/19 05:24:12;;;;;;;14.20;12.90;;;24.00;99.10;;;;;;5054215;28;20045;-68
2021/06/19 05:26:39;;;;;;;19.02;15.77;;;24.10;98.50;;;;;;5053904;28;20098;-69
2021/06/19 05:29:05;;;;;;;14.77;13.27;;;24.20;98.70;;;;;;5054359;28;20095;-67
2021/06/19 05:31:32;;;;;;;12.95;11.70;;;24.20;98.80;;;;;;5054361;28;20045;-67
2021/06/19 05:33:59;;;;;;;13.50;12.07;;;24.40;97.60;;;;;;5055524;28;20103;-66
2021/06/19 05:36:25;;;;;;;15.25;13.68;;;24.40;97.60;;;;;;5054678;28;20401;-65
2021/06/19 05:38:52;;;;;;;13.10;11.93;;;24.40;97.80;;;;;;5055075;28;20481;-65
2021/06/19 05:41:20;;;;;;;12.65;11.55;;;24.50;97.60;;;;;;5054562;28;20053;-66
2021/06/19 05:43:47;;;;;;;14.18;12.85;;;24.60;97.80;;;;;;5054385;28;20045;-66
2021/06/19 05:46:13;;;;;;;13.85;12.55;;;24.80;97.50;;;;;;5053992;28;20048;-66
2021/06/19 05:48:40;;;;;;;15.13;12.68;;;24.90;96.60;;;;;;5055673;28;20041;-67
2021/06/19 05:51:06;;;;;;;11.95;10.85;;;25.10;96.30;;;;;;5055442;28;20095;-67
2021/06/19 05:53:33;;;;;;;13.48;12.23;;;25.10;95.80;;;;;;5054249;28;20782;-66
2021/06/19 05:56:00;;;;;;;11.73;10.63;;;25.20;95.10;;;;;;5054397;28;20107;-66
2021/06/19 05:58:28;;;;;;;11.20;10.38;;;25.20;95.10;;;;;;5054145;28;20516;-67
2021/06/19 06:00:54;;;;;;;12.63;11.10;;;25.20;95.00;;;;;;5055172;28;20045;-66
2021/06/19 06:03:21;;;;;;;12.32;11.27;;;25.60;94.80;;;;;;5055627;28;20090;-66
2021/06/19 06:05:47;;;;;;;12.13;11.02;;;25.90;94.00;;;;;;5055255;28;20464;-66
2021/06/19 06:08:14;;;;;;;11.38;10.45;;;26.10;93.40;;;;;;5054916;28;20053;-66
2021/06/19 06:10:41;;;;;;;14.00;12.57;;;26.30;93.00;;;;;;5053806;28;20103;-67
2021/06/19 06:13:08;;;;;;;13.27;12.07;;;26.60;91.90;;;;;;5053362;28;20480;-68
2021/06/19 06:15:36;;;;;;;12.90;11.65;;;26.70;91.20;;;;;;5049301;28;20099;-68
2021/06/19 06:18:02;;;;;;;11.65;10.55;;;26.90;90.70;;;;;;5053362;28;20107;-67
2021/06/19 06:20:29;;;;;;;12.13;11.02;;;26.90;90.30;;;;;;5055181;28;20049;-69
2021/06/19 06:22:56;;;;;;;12.25;11.27;;;27.20;90.30;;;;;;5052983;28;20489;-68
2021/06/19 06:25:22;;;;;;;11.18;10.02;;;27.40;89.30;;;;;;5033891;28;20049;-67
2021/06/19 06:27:49;;;;;;;10.88;9.88;;;27.70;88.70;;;;;;5052414;28;20086;-68
2021/06/19 06:30:17;;;;;;;11.10;10.00;;;27.90;86.90;;;;;;5053338;28;20045;-67
2021/06/19 06:32:45;;;;;;;10.40;9.52;;;28.00;85.30;;;;;;5054290;28;20037;-67
2021/06/19 06:35:12;;;;;;;11.25;10.25;;;28.00;85.00;;;;;;5053870;28;20075;-66
2021/06/19 06:37:39;;;;;;;10.48;9.57;;;27.80;84.50;;;;;;5053627;28;20120;-66
2021/06/19 06:40:08;;;;;;;11.55;10.63;;;28.00;84.30;;;;;;5025910;28;20056;-76
2021/06/19 06:42:35;;;;;;;9.80;9.00;;;28.20;83.10;;;;;;5054240;28;20404;-73
2021/06/19 06:45:02;;;;;;;10.93;10.02;;;28.50;81.70;;;;;;5052434;28;20048;-72
2021/06/19 06:47:29;;;;;;;10.45;9.65;;;28.40;81.70;;;;;;5052165;28;20045;-73
2021/06/19 06:49:57;;;;;;;11.73;10.10;;;28.60;81.30;;;;;;5052107;28;20049;-74
2021/06/19 06:52:23;;;;;;;11.75;10.40;;;29.00;80.50;;;;;;5052267;28;20053;-74
2021/06/19 06:54:50;;;;;;;10.68;9.77;;;29.50;78.90;;;;;;5052223;28;20041;-74
2021/06/19 06:57:17;;;;;;;11.50;10.50;;;29.70;78.00;;;;;;5052030;28;20056;-75
2021/06/19 06:59:43;;;;;;;11.07;10.07;;;29.50;77.30;;;;;;5052582;28;20049;-75
2021/06/19 07:02:11;;;;;;;11.23;10.43;;;29.50;78.10;;;;;;5052190;28;20049;-74
2021/06/19 07:04:38;;;;;;;11.27;10.38;;;29.50;77.30;;;;;;5051232;28;20497;-73
2021/06/19 07:07:06;;;;;;;11.68;10.68;;;29.80;76.80;;;;;;5051856;28;20052;-74
2021/06/19 07:09:33;;;;;;;13.02;11.90;;;30.30;75.40;;;;;;5052537;28;20103;-74
2021/06/19 07:11:59;;;;;;;12.32;11.07;;;30.90;74.00;;;;;;5051925;28;20099;-74
2021/06/19 07:14:26;;;;;;;10.77;9.98;;;31.50;71.50;;;;;;5051993;28;20735;-75
2021/06/19 07:16:53;;;;;;;10.52;9.60;;;31.40;70.10;;;;;;5051749;28;20485;-74
2021/06/19 07:19:19;;;;;;;11.15;10.25;;;31.20;70.20;;;;;;5051923;28;20045;-75
2021/06/19 07:21:46;;;;;;;11.98;11.10;;;31.50;70.30;;;;;;5051874;28;20106;-74
2021/06/19 07:24:14;;;;;;;10.80;9.85;;;32.10;68.90;;;;;;5052059;28;20057;-75
2021/06/19 07:26:40;;;;;;;10.27;9.48;;;32.10;67.40;;;;;;5051925;28;20094;-75
2021/06/19 07:29:07;;;;;;;10.98;8.93;;;32.10;65.90;;;;;;5055213;28;20057;-74
2021/06/19 07:31:34;;;;;;;10.38;9.48;;;32.20;66.40;;;;;;5051405;28;20159;-75
2021/06/19 07:34:00;;;;;;;11.38;10.48;;;32.70;65.30;;;;;;5051801;28;20091;-73
2021/06/19 07:36:27;;;;;;;10.02;9.30;;;33.30;63.10;;;;;;5051700;28;20049;-75
2021/06/19 07:38:54;;;;;;;9.10;8.43;;;33.80;61.90;;;;;;5051840;28;20095;-76
2021/06/19 07:41:21;;;;;;;9.95;9.25;;;33.80;61.30;;;;;;5051735;28;20045;-74
2021/06/19 07:43:48;;;;;;;9.25;8.65;;;33.50;61.20;;;;;;5051898;28;20443;-74
2021/06/19 07:46:15;;;;;;;8.27;7.68;;;33.60;61.10;;;;;;5051331;28;20052;-75
2021/06/19 07:48:42;;;;;;;8.68;8.07;;;34.20;58.50;;;;;;5051367;28;20496;-73
2021/06/19 07:51:08;;;;;;;8.70;8.00;;;34.30;58.30;;;;;;5051749;28;20041;-75
2021/06/19 07:53:35;;;;;;;8.23;7.63;;;34.10;58.50;;;;;;5052106;28;20048;-74
2021/06/19 07:56:01;;;;;;;10.30;9.32;;;34.20;58.20;;;;;;5051290;28;20049;-74
2021/06/19 07:58:29;;;;;;;8.32;7.72;;;34.40;57.80;;;;;;5051623;28;20045;-74
2021/06/19 08:00:56;;;;;;;8.23;7.65;;;34.40;56.60;;;;;;5051509;28;20045;-74
2021/06/19 08:03:23;;;;;;;8.93;8.00;;;34.80;56.00;;;;;;5051508;28;20074;-74
2021/06/19 08:05:49;;;;;;;7.80;7.20;;;34.80;55.50;;;;;;5051278;28;20387;-75
2021/06/19 08:08:16;;;;;;;8.52;7.82;;;34.50;56.00;;;;;;5051224;28;20056;-74
2021/06/19 08:10:43;;;;;;;8.32;7.68;;;34.30;55.10;;;;;;5051664;28;20049;-73
2021/06/19 08:13:10;;;;;;;8.98;8.18;;;35.00;55.40;;;;;;5051699;28;20479;-74
2021/06/19 08:15:38;;;;;;;10.38;9.57;;;35.20;54.90;;;;;;5051121;28;20052;-76
2021/06/19 08:18:05;;;;;;;8.05;7.32;;;35.30;54.40;;;;;;5054655;28;20443;-75
2021/06/19 08:20:32;;;;;;;9.23;8.48;;;35.90;54.10;;;;;;5051591;28;20451;-75
2021/06/19 08:22:59;;;;;;;8.38;7.68;;;36.50;52.80;;;;;;5055195;28;20135;-73
2021/06/19 08:25:25;;;;;;;9.38;8.63;;;36.40;52.50;;;;;;5054670;28;20045;-74
2021/06/19 08:27:52;;;;;;;11.88;10.93;;;36.00;53.40;;;;;;5055204;28;20079;-77
2021/06/19 08:30:19;;;;;;;8.68;7.80;;;36.00;52.60;;;;;;5054526;28;20502;-75
2021/06/19 08:32:47;;;;;;;20.73;18.55;;;36.20;52.20;;;;;;5054800;28;20440;-74
2021/06/19 08:35:14;;;;;;;16.02;14.52;;;37.10;51.60;;;;;;5054606;28;20087;-74
2021/06/19 08:37:41;;;;;;;9.18;8.38;;;37.80;50.50;;;;;;5054499;28;20114;-75
2021/06/19 08:40:09;;;;;;;8.88;8.27;;;38.00;50.40;;;;;;5054626;28;20743;-78
2021/06/19 08:42:37;;;;;;;8.68;7.93;;;37.50;50.20;;;;;;5054464;28;20045;-75
2021/06/19 08:45:05;;;;;;;8.00;7.50;;;37.50;49.50;;;;;;5054541;28;20134;-75
2021/06/19 08:47:36;;;;;;;8.73;7.88;;;37.40;49.00;;;;;;5053867;28;20927;-75
2021/06/19 08:50:06;;;;;;;7.90;7.20;;;37.50;49.30;;;;;;5054723;28;20094;-74
2021/06/19 08:52:34;;;;;;;7.70;7.00;;;37.20;49.00;;;;;;5054613;28;20053;-75
2021/06/19 08:55:01;;;;;;;8.82;8.13;;;37.20;49.40;;;;;;5054314;28;20049;-74
2021/06/19 08:57:27;;;;;;;7.85;7.22;;;37.00;49.10;;;;;;5054045;28;20049;-73
2021/06/19 08:59:54;;;;;;;7.53;6.93;;;36.10;50.00;;;;;;5054417;28;20048;-73
2021/06/19 09:02:21;;;;;;;7.85;7.15;;;35.80;50.50;;;;;;5054557;28;20045;-74
2021/06/19 09:04:59;;;;;;;8.27;7.57;;;36.30;50.00;;;;;;5053898;28;20481;-73
2021/06/19 09:07:41;;;;;;;8.00;7.30;;;35.80;49.70;;;;;;5054088;28;20102;-74
2021/06/19 09:10:20;;;;;;;7.80;7.20;;;37.30;48.90;;;;;;5054337;28;20060;-74
2021/06/19 09:13:06;;;;;;;9.20;8.45;;;37.50;47.30;;;;;;5054350;28;20045;-74
2021/06/19 09:15:35;;;;;;;8.20;7.43;;;37.80;47.20;;;;;;5053962;28;20121;-74
2021/06/19 09:18:13;;;;;;;9.50;8.68;;;38.30;46.80;;;;;;5053912;28;20111;-73
2021/06/19 09:20:47;;;;;;;7.70;7.07;;;38.80;44.30;;;;;;5054481;28;20159;-74
2021/06/19 09:23:16;;;;;;;7.65;7.03;;;39.50;43.80;;;;;;5054095;28;20052;-76
2021/06/19 09:25:43;;;;;;;7.07;6.60;;;39.60;44.30;;;;;;5053816;28;20095;-74
2021/06/19 09:28:11;;;;;;;7.43;6.55;;;38.90;43.80;;;;;;5052865;28;20045;-74
2021/06/19 09:30:39;;;;;;;6.70;6.05;;;39.20;43.60;;;;;;5053349;28;20103;-74
2021/06/19 09:33:08;;;;;;;7.60;7.10;;;39.80;43.10;;;;;;5053812;28;20090;-74
2021/06/19 09:35:36;;;;;;;12.93;11.68;;;41.00;42.60;;;;;;5053407;28;20118;-75
2021/06/19 09:38:06;;;;;;;8.75;8.05;;;41.10;41.70;;;;;;5053440;28;20049;-73
2021/06/19 09:40:37;;;;;;;8.63;7.82;;;41.70;41.70;;;;;;5041453;28;20052;-74
2021/06/19 09:43:16;;;;;;;7.88;7.15;;;41.60;40.90;;;;;;5053628;28;20052;-76
2021/06/19 09:45:47;;;;;;;6.50;5.85;;;41.60;41.20;;;;;;5053237;28;20053;-75
2021/06/19 09:48:24;;;;;;;7.35;6.80;;;39.90;39.40;;;;;;5053830;28;20143;-76
2021/06/19 09:51:17;;;;;;;6.10;5.70;;;40.00;39.40;;;;;;5053540;28;20048;-75
2021/06/19 09:53:46;;;;;;;14.63;13.23;;;39.70;40.20;;;;;;5053150;28;20053;-75
2021/06/19 09:56:16;;;;;;;6.95;6.43;;;39.70;39.70;;;;;;5053179;28;20060;-74
2021/06/19 09:58:44;;;;;;;10.93;9.75;;;40.50;39.50;;;;;;5053283;28;20053;-75
2021/06/19 10:01:11;;;;;;;6.75;6.25;;;41.80;38.60;;;;;;5053123;28;20045;-74
2021/06/19 10:03:51;;;;;;;7.32;6.70;;;41.90;37.30;;;;;;5053611;28;20053;-74
2021/06/19 10:06:17;;;;;;;8.60;7.97;;;40.40;38.40;;;;;;5053061;28;20094;-74
2021/06/19 10:08:46;;;;;;;5.80;5.43;;;40.70;39.50;;;;;;5053420;28;20071;-74
2021/06/19 10:11:14;;;;;;;5.75;5.35;;;40.60;36.90;;;;;;5053112;28;20127;-75
2021/06/19 10:13:43;;;;;;;6.28;5.70;;;40.40;38.60;;;;;;5052960;28;20048;-75
2021/06/19 10:16:11;;;;;;;7.40;6.82;;;39.50;38.30;;;;;;5052941;28;20118;-75
2021/06/19 10:18:39;;;;;;;8.23;7.60;;;39.90;40.40;;;;;;5052846;28;20049;-74
2021/06/19 10:21:06;;;;;;;7.53;5.90;;;40.70;39.70;;;;;;5052975;28;20041;-74
2021/06/19 10:23:33;;;;;;;5.93;5.50;;;41.80;37.20;;;;;;5053100;28;20045;-74
2021/06/19 10:26:00;;;;;;;6.07;5.65;;;42.00;36.70;;;;;;5052545;28;20091;-74
2021/06/19 10:28:31;;;;;;;7.20;6.70;;;41.00;37.00;;;;;;5052802;28;20052;-74
2021/06/19 10:30:58;;;;;;;6.00;5.68;;;42.10;36.10;;;;;;5052355;28;20459;-75
2021/06/19 10:33:27;;;;;;;5.88;5.47;;;42.50;36.60;;;;;;5052994;28;20099;-75
2021/06/19 10:35:55;;;;;;;6.85;6.28;;;43.10;35.20;;;;;;5052259;28;20041;-75
2021/06/19 10:38:22;;;;;;;6.47;5.97;;;42.60;35.10;;;;;;5052616;28;20095;-74
2021/06/19 10:40:53;;;;;;;5.10;4.80;;;43.20;34.70;;;;;;5052164;28;20505;-73
2021/06/19 10:43:21;;;;;;;5.93;5.43;;;42.30;34.00;;;;;;5052662;28;20481;-74
2021/06/19 10:45:49;;;;;;;6.85;6.45;;;40.60;35.80;;;;;;5052268;28;20102;-74
2021/06/19 10:48:17;;;;;;;9.57;6.80;;;41.00;35.80;;;;;;5052261;28;20041;-74
2021/06/19 10:50:45;;;;;;;5.57;5.28;;;40.30;35.80;;;;;;5052369;28;20049;-75
2021/06/19 10:53:13;;;;;;;6.50;6.10;;;39.80;36.00;;;;;;5052333;28;20048;-77
2021/06/19 10:55:55;;;;;;;5.82;5.53;;;40.50;36.80;;;;;;5051752;28;20099;-75
2021/06/19 10:58:25;;;;;;;6.95;6.18;;;41.20;35.50;;;;;;5052343;28;20044;-75
2021/06/19 11:00:54;;;;;;;5.50;5.18;;;41.40;35.90;;;;;;5052277;28;20155;-75
2021/06/19 11:03:43;;;;;;;6.68;6.18;;;41.10;35.40;;;;;;5052333;28;20061;-74
2021/06/19 11:06:20;;;;;;;6.95;6.47;;;41.40;35.20;;;;;;5052246;28;20080;-75
2021/06/19 11:09:05;;;;;;;5.80;5.50;;;41.70;35.30;;;;;;5051895;28;20041;-74
2021/06/19 11:11:54;;;;;;;5.00;4.60;;;42.50;33.80;;;;;;5031803;28;20166;-75
2021/06/19 11:14:56;;;;;;;5.93;5.45;;;42.00;34.90;;;;;;5032281;28;20045;-74
2021/06/19 11:17:47;;;;;;;6.55;5.97;;;41.90;35.00;;;;;;5032252;28;20041;-74
2021/06/19 11:20:27;;;;;;;5.53;5.22;;;42.10;34.80;;;;;;5035335;28;20566;-74
2021/06/19 11:23:02;;;;;;;5.68;5.30;;;41.40;35.30;;;;;;5052073;28;20053;-73
2021/06/19 11:25:42;;;;;;;5.45;5.05;;;41.40;36.00;;;;;;5051468;28;20102;-75
2021/06/19 11:28:10;;;;;;;5.83;5.43;;;41.10;34.90;;;;;;5039072;28;20041;-74
2021/06/19 11:30:53;;;;;;;5.80;5.25;;;41.40;34.40;;;;;;5051962;28;20041;-74
2021/06/19 11:33:52;;;;;;;5.40;5.00;;;41.30;34.90;;;;;;5052052;28;20053;-74
2021/06/19 11:36:38;;;;;;;4.63;4.43;;;40.90;35.90;;;;;;5051752;28;20049;-75
2021/06/19 11:39:15;;;;;;;6.00;5.43;;;41.40;35.60;;;;;;5051694;28;20044;-74
2021/06/19 11:41:48;;;;;;;5.50;5.18;;;42.60;34.30;;;;;;5050579;28;20045;-75
2021/06/19 11:44:20;;;;;;;5.30;4.90;;;43.40;33.40;;;;;;5052189;28;20049;-75
2021/06/19 11:46:49;;;;;;;5.50;5.15;;;43.30;32.80;;;;;;5051943;28;20049;-76
2021/06/19 11:49:18;;;;;;;5.57;5.18;;;42.50;34.20;;;;;;5052065;28;20045;-75
2021/06/19 11:51:48;;;;;;;6.00;5.55;;;41.70;36.10;;;;;;5055441;28;20079;-75
2021/06/19 11:54:16;;;;;;;5.93;5.50;;;42.80;35.30;;;;;;5055388;28;20060;-74
2021/06/19 11:56:43;;;;;;;6.05;5.45;;;41.70;35.50;;;;;;5055465;28;20048;-74
2021/06/19 11:59:12;;;;;;;5.72;5.38;;;41.50;35.70;;;;;;5055720;28;20045;-75
2021/06/19 12:01:40;;;;;;;6.32;5.63;;;41.70;35.70;;;;;;5055635;28;20044;-75
2021/06/19 12:04:10;;;;;;;6.40;6.00;;;42.80;36.00;;;;;;5055580;28;20041;-74
2021/06/19 12:06:41;;;;;;;5.80;5.40;;;43.60;34.50;;;;;;5055281;28;20041;-74
2021/06/19 12:09:09;;;;;;;5.80;5.40;;;43.90;33.40;;;;;;5055518;28;20053;-75
2021/06/19 12:11:37;;;;;;;5.15;4.85;;;42.90;34.10;;;;;;5055364;28;20057;-75
2021/06/19 12:14:17;;;;;;;6.30;5.75;;;42.30;34.60;;;;;;5055496;28;20126;-74
2021/06/19 12:16:44;;;;;;;6.30;5.95;;;42.50;34.40;;;;;;5055290;28;20124;-74
2021/06/19 12:19:11;;;;;;;5.80;5.30;;;42.50;33.80;;;;;;5055174;28;20045;-74
2021/06/19 12:21:40;;;;;;;6.43;5.85;;;43.00;34.70;;;;;;5054885;28;20566;-75
2021/06/19 12:24:24;;;;;;;5.65;5.32;;;42.30;33.50;;;;;;5055417;28;20045;-74
2021/06/19 12:27:02;;;;;;;10.88;9.88;;;41.10;35.50;;;;;;5054519;28;20524;-75
2021/06/19 12:29:35;;;;;;;5.90;5.60;;;41.90;38.00;;;;;;5055336;28;20103;-74
2021/06/19 12:32:02;;;;;;;6.78;6.28;;;41.30;35.40;;;;;;5055402;28;20072;-74
2021/06/19 12:34:30;;;;;;;7.70;6.95;;;41.20;37.80;;;;;;5055875;28;20451;-74
2021/06/19 12:36:58;;;;;;;9.55;8.65;;;40.90;37.70;;;;;;5057746;28;20119;-74
2021/06/19 12:39:26;;;;;;;6.50;6.10;;;40.70;37.90;;;;;;5055585;28;20056;-74
2021/06/19 12:41:53;;;;;;;7.53;6.93;;;39.80;37.50;;;;;;5055536;28;20044;-75
2021/06/19 12:44:20;;;;;;;7.72;7.03;;;39.80;37.40;;;;;;5059290;28;20079;-75
2021/06/19 12:46:46;;;;;;;10.77;7.60;;;39.50;38.00;;;;;;5061721;28;20075;-74
2021/06/19 12:49:13;;;;;;;7.55;6.75;;;39.30;38.60;;;;;;5064503;28;20475;-75